createdAt,value
2022-09-20T00:01:50.968Z,101586.72
2022-09-20T00:04:19.101Z,101572.53
2022-09-20T00:06:47.336Z,101589.22
2022-09-20T00:09:15.364Z,101592.69
2022-09-20T00:11:45.496Z,101589.69
2022-09-20T00:14:14.975Z,101579.44
2022-09-20T00:16:43.676Z,101591.44
2022-09-20T00:19:18.039Z,101590.03
2022-09-20T00:21:46.261Z,101596.06
2022-09-20T00:24:14.505Z,101594.31
2022-09-20T00:26:42.557Z,101594.63
2022-09-20T00:29:12.823Z,101594.38
2022-09-20T00:31:42.902Z,101583.22
2022-09-20T00:34:29.565Z,101592.03
2022-09-20T00:36:57.559Z,101596.75
2022-09-20T00:39:25.879Z,101599.47
2022-09-20T00:41:54.024Z,101599.91
2022-09-20T00:44:44.522Z,101603.97
2022-09-20T00:47:23.856Z,101597.09
2022-09-20T00:49:56.820Z,101600.13
2022-09-20T00:52:25.288Z,101595.16
2022-09-20T00:54:53.628Z,101590.31
2022-09-20T00:57:21.908Z,101608.81
2022-09-20T00:59:51.043Z,101599.34
2022-09-20T01:02:23.547Z,101612.00
2022-09-20T01:04:51.920Z,101616.25
2022-09-20T01:07:23.352Z,101603.72
2022-09-20T01:09:51.976Z,101614.88
2022-09-20T01:12:24.545Z,101599.00
2022-09-20T01:14:53.208Z,101600.84
2022-09-20T01:17:24.718Z,101605.25
2022-09-20T01:20:06.976Z,101607.38
2022-09-20T01:22:42.394Z,101612.69
2022-09-20T01:25:15.162Z,101611.63
2022-09-20T01:27:46.935Z,101604.97
2022-09-20T01:30:17.137Z,101619.31
2022-09-20T01:33:00.782Z,101621.94
2022-09-20T01:35:30.174Z,101620.09
2022-09-20T01:38:11.361Z,101618.84
2022-09-20T01:40:46.742Z,101627.03
2022-09-20T01:43:22.313Z,101631.66
2022-09-20T01:45:52.060Z,101623.28
2022-09-20T01:48:27.241Z,101633.59
2022-09-20T01:51:25.276Z,101646.19
2022-09-20T01:54:25.647Z,101645.44
2022-09-20T01:57:27.556Z,101650.16
2022-09-20T02:00:06.528Z,101648.72
2022-09-20T02:03:14.259Z,101654.75
2022-09-20T02:06:09.786Z,101656.13
2022-09-20T02:09:04.859Z,101645.72
2022-09-20T02:11:44.483Z,101658.75
2022-09-20T02:14:36.560Z,101658.69
2022-09-20T02:17:13.965Z,101665.56
2022-09-20T02:20:04.978Z,101653.81
2022-09-20T02:22:44.511Z,101655.44
2022-09-20T02:25:24.984Z,101659.91
2022-09-20T02:28:02.772Z,101657.66
2022-09-20T02:30:38.897Z,101659.53
2022-09-20T02:33:25.580Z,101656.25
2022-09-20T02:36:04.240Z,101662.78
2022-09-20T02:38:43.728Z,101661.63
2022-09-20T02:41:37.185Z,101662.28
2022-09-20T02:44:10.602Z,101657.25
2022-09-20T02:46:43.571Z,101667.97
2022-09-20T02:49:18.211Z,101665.88
2022-09-20T02:51:51.996Z,101665.88
2022-09-20T02:54:35.415Z,101676.28
2022-09-20T02:57:06.969Z,101667.78
2022-09-20T02:59:41.725Z,101670.28
2022-09-20T03:02:17.701Z,101682.91
2022-09-20T03:04:57.052Z,101680.63
2022-09-20T03:07:33.834Z,101689.88
2022-09-20T03:10:08.780Z,101679.81
2022-09-20T03:12:44.839Z,101675.47
2022-09-20T03:15:19.922Z,101674.81
2022-09-20T03:17:52.223Z,101679.53
2022-09-20T03:20:32.714Z,101668.75
2022-09-20T03:23:11.892Z,101680.69
2022-09-20T03:25:49.394Z,101682.53
2022-09-20T03:28:28.029Z,101686.47
2022-09-20T03:31:05.040Z,101689.28
2022-09-20T03:33:40.929Z,101684.38
2022-09-20T03:36:20.354Z,101681.97
2022-09-20T03:39:25.665Z,101678.56
2022-09-20T03:42:04.209Z,101694.84
2022-09-20T03:44:58.761Z,101703.25
2022-09-20T03:47:45.390Z,101689.16
2022-09-20T03:50:24.945Z,101701.91
2022-09-20T03:53:21.128Z,101700.91
2022-09-20T03:56:01.278Z,101697.84
2022-09-20T03:58:39.911Z,101698.53
2022-09-20T04:01:21.046Z,101688.31
2022-09-20T04:03:55.649Z,101688.41
2022-09-20T04:06:41.514Z,101703.16
2022-09-20T04:09:32.754Z,101692.97
2022-09-20T04:12:05.552Z,101701.63
2022-09-20T04:14:38.966Z,101683.31
2022-09-20T04:17:19.557Z,101711.44
2022-09-20T04:19:52.201Z,101713.09
2022-09-20T04:22:22.222Z,101694.69
2022-09-20T04:24:54.747Z,101700.66
2022-09-20T04:27:27.284Z,101708.56
2022-09-20T04:29:59.775Z,101695.81
2022-09-20T04:32:33.613Z,101698.22
2022-09-20T04:35:24.871Z,101714.31
2022-09-20T04:37:53.543Z,101709.59
2022-09-20T04:40:29.793Z,101715.28
2022-09-20T04:43:26.047Z,101704.09
2022-09-20T04:46:33.067Z,101715.59
2022-09-20T04:49:33.864Z,101718.94
2022-09-20T04:52:22.431Z,101715.03
2022-09-20T04:55:27.115Z,101734.78
2022-09-20T04:58:19.298Z,101735.47
2022-09-20T05:01:07.668Z,101735.94
2022-09-20T05:04:09.365Z,101737.09
2022-09-20T05:06:56.768Z,101743.31
2022-09-20T05:09:51.697Z,101744.47
2022-09-20T05:12:42.274Z,101740.53
2022-09-20T05:15:23.758Z,101749.47
2022-09-20T05:18:13.105Z,101750.78
2022-09-20T05:20:56.926Z,101774.03
2022-09-20T05:23:55.554Z,101780.28
2022-09-20T05:26:31.011Z,101773.81
2022-09-20T05:29:07.693Z,101769.88
2022-09-20T05:31:40.616Z,101772.75
2022-09-20T05:38:11.654Z,101782.97
2022-09-20T05:40:53.119Z,101770.69
2022-09-20T05:43:26.578Z,101765.19
2022-09-20T05:46:05.439Z,101783.19
2022-09-20T05:48:42.127Z,101768.91
2022-09-20T05:51:28.853Z,101777.50
2022-09-20T05:54:19.575Z,101780.97
2022-09-20T05:56:53.762Z,101789.59
2022-09-20T05:59:30.643Z,101786.78
2022-09-20T06:02:05.523Z,101798.25
2022-09-20T06:04:41.109Z,101799.63
2022-09-20T06:07:17.852Z,101806.56
2022-09-20T06:10:19.582Z,101810.06
2022-09-20T06:12:55.258Z,101821.31
2022-09-20T06:15:29.063Z,101817.81
2022-09-20T06:18:47.081Z,101803.28
2022-09-20T06:21:35.416Z,101806.66
2022-09-20T06:24:07.015Z,101806.00
2022-09-20T06:26:54.095Z,101798.84
2022-09-20T06:29:28.797Z,101804.69
2022-09-20T06:31:57.032Z,101811.38
2022-09-20T06:34:27.072Z,101808.59
2022-09-20T06:37:16.278Z,101815.69
2022-09-20T06:40:08.483Z,101815.59
2022-09-20T06:42:37.739Z,101814.25
2022-09-20T06:45:06.699Z,101830.53
2022-09-20T06:47:38.645Z,101828.50
2022-09-20T06:50:08.020Z,101824.06
2022-09-20T06:52:37.592Z,101825.63
2022-09-20T06:55:08.957Z,101825.06
2022-09-20T06:57:39.106Z,101827.13
2022-09-20T07:00:11.594Z,101829.47
2022-09-20T07:02:40.202Z,101835.78
2022-09-20T07:05:11.581Z,101841.00
2022-09-20T07:07:41.128Z,101816.72
2022-09-20T07:10:09.994Z,101828.69
2022-09-20T07:12:38.048Z,101830.13
2022-09-20T07:15:07.330Z,101832.28
2022-09-20T07:17:35.626Z,101836.06
2022-09-20T07:20:04.330Z,101828.09
2022-09-20T07:22:32.443Z,101834.56
2022-09-20T07:25:02.539Z,101840.88
2022-09-20T07:27:30.747Z,101843.91
2022-09-20T07:29:58.770Z,101851.41
2022-09-20T07:32:27.218Z,101851.94
2022-09-20T07:34:55.337Z,101840.22
2022-09-20T07:37:23.585Z,101850.63
2022-09-20T07:39:52.217Z,101855.34
2022-09-20T07:42:21.814Z,101854.28
2022-09-20T07:44:50.817Z,101850.75
2022-09-20T07:47:25.336Z,101868.13
2022-09-20T07:49:53.653Z,101863.22
2022-09-20T07:52:21.828Z,101868.44
2022-09-20T07:54:50.064Z,101861.38
2022-09-20T07:57:18.559Z,101869.78
2022-09-20T07:59:48.261Z,101875.47
2022-09-20T08:02:18.367Z,101880.38
2022-09-20T08:04:49.935Z,101868.72
2022-09-20T08:07:20.330Z,101866.44
2022-09-20T08:09:48.466Z,101875.28
2022-09-20T08:15:11.719Z,101892.56
2022-09-20T08:17:40.614Z,101876.69
2022-09-20T08:20:11.039Z,101895.16
2022-09-20T08:22:42.126Z,101877.50
2022-09-20T08:25:10.507Z,101880.41
2022-09-20T08:27:39.077Z,101883.69
2022-09-20T08:30:10.559Z,101884.41
2022-09-20T08:32:41.302Z,101880.88
2022-09-20T08:35:18.855Z,101881.53
2022-09-20T08:37:47.656Z,101884.44
2022-09-20T08:40:16.756Z,101874.00
2022-09-20T08:42:48.283Z,101887.31
2022-09-20T08:45:33.706Z,101879.00
2022-09-20T08:48:05.726Z,101882.50
2022-09-20T08:50:34.706Z,101884.00
2022-09-20T08:53:05.083Z,101889.91
2022-09-20T08:55:41.712Z,101878.03
2022-09-20T08:58:11.854Z,101887.09
2022-09-20T09:00:42.228Z,101883.97
2022-09-20T09:03:19.535Z,101891.72
2022-09-20T09:05:52.073Z,101901.25
2022-09-20T09:08:21.950Z,101889.09
2022-09-20T09:10:55.677Z,101894.28
2022-09-20T09:13:36.305Z,101904.31
2022-09-20T09:16:10.972Z,101904.69
2022-09-20T09:18:44.447Z,101907.22
2022-09-20T09:21:20.117Z,101905.06
2022-09-20T09:24:01.422Z,101912.72
2022-09-20T09:26:30.303Z,101909.28
2022-09-20T09:29:17.200Z,101909.13
2022-09-20T09:31:48.195Z,101907.13
2022-09-20T09:34:27.911Z,101913.84
2022-09-20T09:36:56.480Z,101908.59
2022-09-20T09:39:28.454Z,101915.72
2022-09-20T09:42:01.070Z,101919.94
2022-09-20T09:44:32.864Z,101912.47
2022-09-20T09:47:04.016Z,101926.94
2022-09-20T09:50:03.701Z,101924.28
2022-09-20T09:52:35.520Z,101917.66
2022-09-20T09:55:05.897Z,101915.94
2022-09-20T09:57:42.467Z,101915.91
2022-09-20T10:00:20.373Z,101916.25
2022-09-20T10:03:09.443Z,101914.31
2022-09-20T10:05:43.269Z,101917.13
2022-09-20T10:08:18.866Z,101913.47
2022-09-20T10:10:59.604Z,101910.47
2022-09-20T10:13:37.102Z,101909.06
2022-09-20T10:16:14.031Z,101912.88
2022-09-20T10:18:54.660Z,101912.72
2022-09-20T10:21:37.986Z,101919.19
2022-09-20T10:24:20.040Z,101920.84
2022-09-20T10:27:02.837Z,101915.28
2022-09-20T10:29:48.137Z,101915.75
2022-09-20T10:32:35.676Z,101911.47
2022-09-20T10:35:15.463Z,101922.97
2022-09-20T10:37:56.908Z,101916.63
2022-09-20T10:40:48.404Z,101924.78
2022-09-20T10:43:26.021Z,101927.00
2022-09-20T10:46:27.929Z,101918.72
2022-09-20T10:48:57.508Z,101928.59
2022-09-20T10:51:44.715Z,101935.34
2022-09-20T10:54:22.812Z,101940.44
2022-09-20T10:56:57.192Z,101933.44
2022-09-20T10:59:41.568Z,101948.19
2022-09-20T11:02:35.857Z,101943.50
2022-09-20T11:05:29.527Z,101946.06
2022-09-20T11:08:06.719Z,101947.66
2022-09-20T11:10:37.635Z,101954.13
2022-09-20T11:13:09.900Z,101956.50
2022-09-20T11:15:41.890Z,101953.22
2022-09-20T11:18:14.486Z,101941.63
2022-09-20T11:20:45.431Z,101957.34
2022-09-20T11:23:26.630Z,101951.63
2022-09-20T11:26:00.005Z,101958.38
2022-09-20T11:28:31.137Z,101956.06
2022-09-20T11:31:11.875Z,101939.34
2022-09-20T11:33:46.115Z,101946.63
2022-09-20T11:36:18.749Z,101948.53
2022-09-20T11:38:59.572Z,101942.69
2022-09-20T11:41:43.068Z,101951.78
2022-09-20T11:44:18.718Z,101954.81
2022-09-20T11:46:58.309Z,101962.75
2022-09-20T11:49:30.379Z,101954.28
2022-09-20T11:52:40.918Z,101944.81
2022-09-20T11:55:31.233Z,101949.09
2022-09-20T11:58:03.997Z,101953.34
2022-09-20T12:00:39.133Z,101947.84
2022-09-20T12:03:22.746Z,101958.38
2022-09-20T12:05:59.622Z,101959.47
2022-09-20T12:08:30.447Z,101950.44
2022-09-20T12:11:05.967Z,101962.41
2022-09-20T12:13:36.727Z,101956.53
2022-09-20T12:16:11.707Z,101950.31
2022-09-20T12:19:07.322Z,101944.59
2022-09-20T12:22:08.666Z,101945.28
2022-09-20T12:24:45.594Z,101958.22
2022-09-20T12:28:12.638Z,101956.88
2022-09-20T12:30:50.073Z,101954.66
2022-09-20T12:33:22.347Z,101954.75
2022-09-20T12:36:33.636Z,101956.34
2022-09-20T12:42:33.951Z,101957.25
2022-09-20T12:45:19.782Z,101954.88
2022-09-20T12:47:55.011Z,101966.31
2022-09-20T12:50:41.613Z,101948.31
2022-09-20T12:53:19.149Z,101962.66
2022-09-20T12:55:55.175Z,101970.72
2022-09-20T12:58:32.500Z,101966.72
2022-09-20T13:01:38.166Z,101957.00
2022-09-20T13:04:57.687Z,101964.13
2022-09-20T13:07:42.695Z,101961.22
2022-09-20T13:10:33.673Z,101951.59
2022-09-20T13:14:01.548Z,101959.91
2022-09-20T13:20:06.804Z,101955.00
2022-09-20T13:26:49.708Z,101962.53
2022-09-20T13:30:47.360Z,101968.97
2022-09-20T13:32:55.223Z,101979.59
2022-09-20T13:39:37.763Z,101960.56
2022-09-20T13:54:06.719Z,101958.53
2022-09-20T14:00:18.938Z,101969.19
2022-09-20T14:02:50.113Z,101960.56
2022-09-20T14:05:22.926Z,101960.91
2022-09-20T14:08:41.444Z,101953.41
2022-09-20T14:11:29.578Z,101952.56
2022-09-20T14:13:59.263Z,101956.78
2022-09-20T14:16:42.397Z,101962.84
2022-09-20T14:19:10.738Z,101969.06
2022-09-20T14:21:40.731Z,101968.69
2022-09-20T14:24:12.572Z,101969.28
2022-09-20T14:26:42.398Z,101968.69
2022-09-20T14:29:29.285Z,101976.72
2022-09-20T14:31:59.261Z,101971.06
2022-09-20T14:34:27.596Z,101971.09
2022-09-20T14:37:05.199Z,101964.78
2022-09-20T14:39:33.516Z,101979.22
2022-09-20T14:42:01.440Z,101975.59
2022-09-20T14:44:32.928Z,101982.44
2022-09-20T14:47:15.091Z,101987.34
2022-09-20T14:49:45.045Z,101985.03
2022-09-20T14:52:43.836Z,101980.88
2022-09-20T14:55:28.756Z,101991.13
2022-09-20T14:58:02.292Z,101990.75
2022-09-20T15:00:30.987Z,101992.50
2022-09-20T15:03:08.011Z,101992.50
2022-09-20T15:05:36.159Z,101999.78
2022-09-20T15:08:05.206Z,101993.59
2022-09-20T15:10:33.353Z,101998.50
2022-09-20T15:13:01.306Z,101998.78
2022-09-20T15:15:29.359Z,102004.50
2022-09-20T15:17:57.577Z,101989.97
2022-09-20T15:20:26.945Z,102000.81
2022-09-20T15:22:55.488Z,101992.88
2022-09-20T15:25:24.789Z,101992.06
2022-09-20T15:27:53.193Z,101990.53
2022-09-20T15:30:21.471Z,101995.38
2022-09-20T15:32:49.702Z,101980.00
2022-09-20T15:35:17.747Z,102001.19
2022-09-20T15:37:57.384Z,102002.72
2022-09-20T15:40:26.002Z,101998.16
2022-09-20T15:43:05.593Z,101994.13
2022-09-20T15:45:37.360Z,102002.19
2022-09-20T15:48:06.948Z,102001.84
2022-09-20T15:50:38.961Z,102006.19
2022-09-20T15:53:08.507Z,102006.41
2022-09-20T15:55:38.006Z,102007.66
2022-09-20T15:58:14.489Z,102008.25
2022-09-20T16:00:42.679Z,102002.88
2022-09-20T16:03:10.736Z,102005.09
2022-09-20T16:05:38.776Z,102013.69
2022-09-20T16:08:08.428Z,102012.41
2022-09-20T16:10:39.301Z,102020.59
2022-09-20T16:13:07.272Z,102017.31
2022-09-20T16:15:38.683Z,102024.19
2022-09-20T16:18:24.750Z,102025.31
2022-09-20T16:20:53.081Z,102026.25
2022-09-20T16:23:26.013Z,102027.72
2022-09-20T16:25:55.306Z,102031.91
2022-09-20T16:28:29.582Z,102034.72
2022-09-20T16:31:08.922Z,102038.09
2022-09-20T16:33:37.520Z,102038.88
2022-09-20T16:36:06.041Z,102040.13
2022-09-20T16:38:38.934Z,102040.38
2022-09-20T16:41:08.536Z,102053.25
2022-09-20T16:43:38.083Z,102044.06
2022-09-20T16:46:07.035Z,102059.91
2022-09-20T16:48:35.980Z,102062.22
2022-09-20T16:51:03.961Z,102046.19
2022-09-20T16:53:32.188Z,102056.19
2022-09-20T16:56:02.045Z,102060.72
2022-09-20T16:58:30.485Z,102061.13
2022-09-20T17:01:05.595Z,102061.34
2022-09-20T17:03:34.210Z,102066.66
2022-09-20T17:06:03.456Z,102061.59
2022-09-20T17:08:32.389Z,102067.06
2022-09-20T17:11:06.647Z,102075.00
2022-09-20T17:13:34.688Z,102074.56
2022-09-20T17:16:04.315Z,102077.16
2022-09-20T17:18:33.270Z,102093.22
2022-09-20T17:21:04.873Z,102082.31
2022-09-20T17:23:34.803Z,102095.75
2022-09-20T17:26:07.982Z,102093.53
2022-09-20T17:28:37.731Z,102098.47
2022-09-20T17:31:06.676Z,102102.06
2022-09-20T17:33:35.601Z,102101.28
2022-09-20T17:36:04.473Z,102099.06
2022-09-20T17:38:35.241Z,102103.78
2022-09-20T17:41:17.424Z,102110.16
2022-09-20T17:43:46.349Z,102097.69
2022-09-20T17:46:16.530Z,102112.16
2022-09-20T17:48:50.641Z,102103.78
2022-09-20T17:51:19.947Z,102113.94
2022-09-20T17:53:48.265Z,102114.69
2022-09-20T17:56:17.905Z,102113.97
2022-09-20T17:58:46.026Z,102120.63
2022-09-20T18:01:15.602Z,102116.94
2022-09-20T18:03:45.069Z,102122.72
2022-09-20T18:06:14.989Z,102128.75
2022-09-20T18:08:53.095Z,102123.53
2022-09-20T18:11:32.840Z,102126.09
2022-09-20T18:14:13.456Z,102136.19
2022-09-20T18:16:44.758Z,102129.97
2022-09-20T18:19:37.467Z,102124.97
2022-09-20T18:22:06.339Z,102147.03
2022-09-20T18:28:47.015Z,102140.66
2022-09-20T18:34:39.039Z,102141.63
2022-09-20T18:37:17.412Z,102149.84
2022-09-20T18:39:45.728Z,102148.66
2022-09-20T18:42:22.964Z,102160.28
2022-09-20T18:44:51.704Z,102150.13
2022-09-20T18:47:30.795Z,102161.50
2022-09-20T18:49:59.391Z,102168.22
2022-09-20T18:52:27.432Z,102163.38
2022-09-20T18:54:56.063Z,102172.03
2022-09-20T18:57:24.560Z,102165.84
2022-09-20T18:59:54.648Z,102170.13
2022-09-20T19:02:38.739Z,102174.88
2022-09-20T19:05:21.963Z,102176.94
2022-09-20T19:07:57.872Z,102173.34
2022-09-20T19:10:29.963Z,102177.16
2022-09-20T19:13:03.327Z,102171.94
2022-09-20T19:15:48.955Z,102185.53
2022-09-20T19:18:28.878Z,102190.13
2022-09-20T19:20:59.685Z,102189.47
2022-09-20T19:23:41.284Z,102187.75
2022-09-20T19:26:14.908Z,102188.88
2022-09-20T19:28:45.653Z,102190.97
2022-09-20T19:31:17.462Z,102193.25
2022-09-20T19:33:48.484Z,102197.16
2022-09-20T19:36:17.763Z,102202.66
2022-09-20T19:38:50.593Z,102201.63
2022-09-20T19:41:28.862Z,102202.25
2022-09-20T19:44:04.519Z,102201.41
2022-09-20T19:46:42.366Z,102214.72
2022-09-20T19:49:15.440Z,102211.78
2022-09-20T19:51:45.141Z,102221.00
2022-09-20T19:54:19.008Z,102212.94
2022-09-20T19:56:55.094Z,102225.44
2022-09-20T19:59:31.798Z,102234.69
2022-09-20T20:02:00.453Z,102232.31
2022-09-20T20:04:29.121Z,102237.22
2022-09-20T20:07:03.341Z,102241.47
2022-09-20T20:09:37.442Z,102237.31
2022-09-20T20:12:10.358Z,102234.72
2022-09-20T20:14:48.269Z,102247.50
2022-09-20T20:17:26.825Z,102238.28
2022-09-20T20:20:07.497Z,102243.59
2022-09-20T20:22:56.923Z,102235.66
2022-09-20T20:25:29.950Z,102247.16
2022-09-20T20:27:57.939Z,102242.06
2022-09-20T20:30:27.245Z,102240.50
2022-09-20T20:32:58.240Z,102246.44
2022-09-20T20:35:26.876Z,102245.13
2022-09-20T20:37:54.960Z,102248.75
2022-09-20T20:40:22.976Z,102253.13
2022-09-20T20:42:50.969Z,102261.91
2022-09-20T20:45:19.708Z,102255.59
2022-09-20T20:47:48.993Z,102258.47
2022-09-20T20:50:17.076Z,102260.53
2022-09-20T20:52:45.026Z,102259.56
2022-09-20T20:55:13.565Z,102258.78
2022-09-20T20:57:41.578Z,102273.22
2022-09-20T21:00:10.778Z,102270.22
2022-09-20T21:02:38.711Z,102273.66
2022-09-20T21:05:09.058Z,102279.38
2022-09-20T21:07:37.104Z,102263.25
2022-09-20T21:10:05.590Z,102270.09
2022-09-20T21:12:33.523Z,102280.38
2022-09-20T21:15:01.509Z,102279.88
2022-09-20T21:17:33.865Z,102285.19
2022-09-20T21:20:03.982Z,102282.13
2022-09-20T21:22:33.917Z,102276.97
2022-09-20T21:25:01.813Z,102280.75
2022-09-20T21:27:30.135Z,102278.91
2022-09-20T21:29:58.299Z,102282.19
2022-09-20T21:32:26.169Z,102280.75
2022-09-20T21:34:54.419Z,102277.25
2022-09-20T21:37:22.332Z,102272.53
2022-09-20T21:39:51.602Z,102277.81
2022-09-20T21:42:19.516Z,102278.69
2022-09-20T21:44:47.418Z,102278.59
2022-09-20T21:47:20.584Z,102286.50
2022-09-20T21:49:48.549Z,102285.22
2022-09-20T21:52:16.452Z,102290.19
2022-09-20T21:54:46.501Z,102288.88
2022-09-20T21:57:16.053Z,102287.03
2022-09-20T21:59:43.933Z,102290.09
2022-09-20T22:02:11.874Z,102296.38
2022-09-20T22:04:39.761Z,102293.06
2022-09-20T22:07:08.014Z,102299.16
2022-09-20T22:09:35.892Z,102302.66
2022-09-20T22:12:03.827Z,102294.97
2022-09-20T22:14:35.137Z,102300.56
2022-09-20T22:17:03.074Z,102304.47
2022-09-20T22:19:32.112Z,102302.31
2022-09-20T22:22:00.045Z,102300.13
2022-09-20T22:24:28.042Z,102301.34
2022-09-20T22:26:55.948Z,102304.75
2022-09-20T22:29:23.914Z,102298.03
2022-09-20T22:31:53.442Z,102299.16
2022-09-20T22:34:23.685Z,102298.44
2022-09-20T22:36:52.210Z,102293.53
2022-09-20T22:39:20.552Z,102289.28
2022-09-20T22:41:49.689Z,102291.72
2022-09-20T22:44:17.701Z,102296.63
2022-09-20T22:46:45.702Z,102292.28
2022-09-20T22:49:14.969Z,102296.09
2022-09-20T22:51:42.869Z,102300.06
2022-09-20T22:54:12.773Z,102300.66
2022-09-20T22:56:41.380Z,102302.81
2022-09-20T22:59:10.690Z,102299.16
2022-09-20T23:01:41.208Z,102302.31
2022-09-20T23:04:10.818Z,102304.31
2022-09-20T23:06:41.486Z,102299.34
2022-09-20T23:09:11.336Z,102301.34
2022-09-20T23:11:39.902Z,102306.13
2022-09-20T23:14:07.957Z,102313.56
2022-09-20T23:16:37.551Z,102310.94
2022-09-20T23:19:06.786Z,102317.81
2022-09-20T23:21:35.661Z,102314.75
2022-09-20T23:24:06.454Z,102322.75
2022-09-20T23:26:35.807Z,102321.75
2022-09-20T23:29:05.404Z,102328.84
2022-09-20T23:31:36.210Z,102321.50
2022-09-20T23:34:06.421Z,102325.19
2022-09-20T23:36:36.012Z,102323.38
2022-09-20T23:39:05.449Z,102333.75
2022-09-20T23:41:33.541Z,102318.06
2022-09-20T23:44:01.449Z,102330.38
2022-09-20T23:46:29.356Z,102319.25
2022-09-20T23:48:57.288Z,102336.16
2022-09-20T23:51:26.545Z,102333.97
2022-09-20T23:53:55.050Z,102340.31
2022-09-20T23:56:24.878Z,102333.97
2022-09-20T23:58:53.844Z,102337.81
